createdAt,value
2019-06-01T00:00:16.937Z,11.1
2019-06-01T00:01:07.904Z,11.1
2019-06-01T00:01:58.918Z,11.1
2019-06-01T00:02:55.743Z,11.1
2019-06-01T00:03:46.445Z,11.1
2019-06-01T00:04:38.619Z,11.1
2019-06-01T00:05:29.659Z,11.1
2019-06-01T00:06:20.608Z,11.1
2019-06-01T00:07:11.607Z,11.2
2019-06-01T00:08:02.644Z,11.2
2019-06-01T00:08:53.655Z,11.2
2019-06-01T00:09:45.142Z,11.2
2019-06-01T00:10:36.138Z,11.2
2019-06-01T00:11:27.087Z,11.2
2019-06-01T00:12:18.079Z,11.2
2019-06-01T00:13:09.050Z,11.2
2019-06-01T00:13:59.988Z,11.2
2019-06-01T00:14:50.870Z,11.3
2019-06-01T00:15:41.963Z,11.3
2019-06-01T00:16:33.166Z,11.3
2019-06-01T00:17:24.123Z,11.3
2019-06-01T00:18:15.105Z,11.3
2019-06-01T00:19:05.984Z,11.3
2019-06-01T00:19:56.890Z,11.3
2019-06-01T00:20:48.597Z,11.3
2019-06-01T00:21:39.561Z,11.3
2019-06-01T00:22:30.517Z,11.3
2019-06-01T00:23:21.496Z,11.3
2019-06-01T00:24:12.424Z,11.3
2019-06-01T00:25:03.316Z,11.3
2019-06-01T00:25:54.290Z,11.3
2019-06-01T00:26:45.846Z,11.3
2019-06-01T00:27:36.904Z,11.3
2019-06-01T00:28:27.998Z,11.3
2019-06-01T00:29:18.965Z,11.3
2019-06-01T00:30:09.981Z,11.3
2019-06-01T00:31:00.900Z,11.3
2019-06-01T00:31:52.147Z,11.3
2019-06-01T00:32:45.254Z,11.3
2019-06-01T00:33:36.315Z,11.3
2019-06-01T00:34:27.240Z,11.3
2019-06-01T00:35:18.222Z,11.3
2019-06-01T00:36:09.144Z,11.3
2019-06-01T00:37:00.127Z,11.3
2019-06-01T00:37:51.764Z,11.4
2019-06-01T00:38:43.871Z,11.4
2019-06-01T00:39:38.980Z,11.4
2019-06-01T00:40:29.919Z,11.4
2019-06-01T00:41:25.140Z,11.4
2019-06-01T00:42:16.049Z,11.4
2019-06-01T00:43:07.008Z,11.4
2019-06-01T00:43:58.091Z,11.4
2019-06-01T00:44:48.973Z,11.4
2019-06-01T00:45:39.874Z,11.4
2019-06-01T00:46:30.816Z,11.4
2019-06-01T00:47:21.748Z,11.4
2019-06-01T00:48:12.812Z,11.4
2019-06-01T00:49:04.675Z,11.4
2019-06-01T00:49:55.625Z,11.4
2019-06-01T00:50:46.825Z,11.4
2019-06-01T00:51:37.751Z,11.4
2019-06-01T00:52:29.043Z,11.4
2019-06-01T00:53:20.059Z,11.4
2019-06-01T00:54:11.035Z,11.4
2019-06-01T00:55:02.018Z,11.4
2019-06-01T00:55:53.631Z,11.4
2019-06-01T00:56:45.550Z,11.4
2019-06-01T00:57:36.607Z,11.4
2019-06-01T00:58:27.611Z,11.4
2019-06-01T00:59:18.591Z,11.4
2019-06-01T01:00:09.638Z,11.4
2019-06-01T01:01:00.611Z,11.4
2019-06-01T01:01:52.345Z,11.4
2019-06-01T01:02:43.979Z,11.4
2019-06-01T01:03:35.016Z,11.4
2019-06-01T01:04:26.723Z,11.4
2019-06-01T01:05:17.683Z,11.5
2019-06-01T01:06:09.623Z,11.5
2019-06-01T01:07:00.659Z,11.6
2019-06-01T01:07:52.127Z,11.6
2019-06-01T01:08:44.768Z,11.6
2019-06-01T01:09:35.953Z,11.6
2019-06-01T01:10:26.989Z,11.6
2019-06-01T01:11:17.967Z,11.6
2019-06-01T01:12:08.970Z,11.6
2019-06-01T01:12:59.937Z,11.6
2019-06-01T01:13:51.267Z,11.7
2019-06-01T01:14:42.410Z,11.7
2019-06-01T01:15:33.386Z,11.7
2019-06-01T01:16:24.343Z,11.7
2019-06-01T01:17:16.350Z,11.8
2019-06-01T01:18:07.324Z,11.8
2019-06-01T01:18:58.331Z,11.8
2019-06-01T01:19:49.682Z,11.8
2019-06-01T01:20:40.679Z,11.8
2019-06-01T01:21:31.930Z,11.8
2019-06-01T01:22:25.186Z,11.8
2019-06-01T01:23:17.152Z,11.8
2019-06-01T01:24:09.796Z,11.8
2019-06-01T01:25:01.187Z,11.8
2019-06-01T01:26:50.611Z,11.8
2019-06-01T01:27:46.569Z,11.8
2019-06-01T01:28:42.222Z,11.8
2019-06-01T01:29:33.288Z,11.8
2019-06-01T01:31:20.060Z,11.8
2019-06-01T01:32:11.019Z,11.8
2019-06-01T01:33:03.028Z,11.8
2019-06-01T01:33:54.064Z,11.8
2019-06-01T01:34:45.064Z,11.8
2019-06-01T01:35:36.002Z,11.8
2019-06-01T01:36:26.988Z,11.8
2019-06-01T01:37:17.926Z,11.8
2019-06-01T01:38:08.843Z,11.8
2019-06-01T01:38:59.874Z,11.8
2019-06-01T01:39:52.106Z,11.8
2019-06-01T01:40:43.120Z,11.8
2019-06-01T01:41:34.032Z,11.8
2019-06-01T01:42:24.997Z,11.8
2019-06-01T01:43:16.023Z,11.8
2019-06-01T01:44:07.088Z,11.8
2019-06-01T01:44:58.641Z,11.8
2019-06-01T01:45:50.608Z,11.9
2019-06-01T01:46:41.599Z,11.9
2019-06-01T01:47:32.577Z,11.9
2019-06-01T01:48:23.544Z,11.9
2019-06-01T01:49:14.516Z,11.9
2019-06-01T01:50:05.516Z,11.9
2019-06-01T01:51:02.624Z,11.9
2019-06-01T01:51:53.733Z,11.9
2019-06-01T01:52:44.665Z,11.9
2019-06-01T01:53:35.587Z,11.9
2019-06-01T01:54:26.583Z,11.9
2019-06-01T01:55:17.514Z,11.9
2019-06-01T01:56:08.449Z,11.9
2019-06-01T01:57:02.598Z,12
2019-06-01T01:57:53.573Z,12
2019-06-01T01:58:44.525Z,12
2019-06-01T01:59:35.581Z,12
2019-06-01T02:00:26.593Z,12
2019-06-01T02:01:22.524Z,12
2019-06-01T02:02:13.436Z,12.1
2019-06-01T02:03:04.400Z,12.1
2019-06-01T02:03:55.864Z,12.1
2019-06-01T02:05:43.999Z,12.1
2019-06-01T02:06:37.714Z,12.1
2019-06-01T02:07:28.779Z,12.1
2019-06-01T02:08:20.793Z,12.1
2019-06-01T02:09:11.729Z,12.1
2019-06-01T02:10:04.454Z,12.1
2019-06-01T02:10:55.468Z,12.2
2019-06-01T02:11:47.517Z,12.2
2019-06-01T02:12:38.457Z,12.2
2019-06-01T02:13:29.390Z,12.2
2019-06-01T02:14:20.344Z,12.2
2019-06-01T02:15:11.335Z,12.2
2019-06-01T02:16:02.675Z,12.2
2019-06-01T02:16:53.980Z,12.2
2019-06-01T02:17:45.989Z,12.2
2019-06-01T02:18:37.258Z,12.2
2019-06-01T02:19:28.225Z,12.2
2019-06-01T02:20:19.266Z,12.2
2019-06-01T02:21:10.534Z,12.2
2019-06-01T02:22:03.518Z,12.2
2019-06-01T02:22:54.742Z,12.2
2019-06-01T02:23:45.749Z,12.2
2019-06-01T02:24:36.717Z,12.2
2019-06-01T02:25:27.628Z,12.2
2019-06-01T02:26:18.551Z,12.2
2019-06-01T02:27:09.483Z,12.2
2019-06-01T02:28:01.371Z,12.2
2019-06-01T02:28:53.154Z,12.2
2019-06-01T02:29:44.181Z,12.2
2019-06-01T02:30:35.121Z,12.2
2019-06-01T02:31:40.360Z,12.2
2019-06-01T02:32:21.876Z,12.2
2019-06-01T02:33:12.777Z,12.2
2019-06-01T02:34:05.993Z,12.2
2019-06-01T02:34:58.521Z,12.2
2019-06-01T02:35:50.851Z,12.2
2019-06-01T02:36:41.828Z,12.2
2019-06-01T02:37:32.714Z,12.2
2019-06-01T02:38:23.627Z,12.3
2019-06-01T02:39:14.561Z,12.2
2019-06-01T02:40:05.659Z,12.2
2019-06-01T02:40:57.362Z,12.2
2019-06-01T02:41:49.440Z,12.2
2019-06-01T02:42:40.364Z,12.3
2019-06-01T02:43:31.362Z,12.3
2019-06-01T02:44:22.620Z,12.3
2019-06-01T02:45:13.552Z,12.4
2019-06-01T02:46:05.453Z,12.4
2019-06-01T02:46:59.470Z,12.4
2019-06-01T02:47:50.503Z,12.4
2019-06-01T02:48:41.405Z,12.4
2019-06-01T02:49:32.342Z,12.4
2019-06-01T02:50:23.250Z,12.4
2019-06-01T02:51:16.485Z,12.4
2019-06-01T02:52:07.401Z,12.4
2019-06-01T02:52:59.347Z,12.4
2019-06-01T02:53:50.312Z,12.3
2019-06-01T02:54:41.261Z,12.3
2019-06-01T02:55:33.189Z,12.3
2019-06-01T02:56:24.135Z,12.4
2019-06-01T02:57:15.103Z,12.4
2019-06-01T02:58:06.784Z,12.4
2019-06-01T02:58:58.232Z,12.4
2019-06-01T02:59:49.213Z,12.4
2019-06-01T03:00:40.176Z,12.4
2019-06-01T03:01:31.208Z,12.4
2019-06-01T03:02:22.147Z,12.4
2019-06-01T03:03:13.122Z,12.4
2019-06-01T03:04:05.217Z,12.4
2019-06-01T03:04:57.040Z,12.4
2019-06-01T03:05:48.056Z,12.4
2019-06-01T03:06:38.978Z,12.4
2019-06-01T03:07:29.932Z,12.4
2019-06-01T03:08:20.832Z,12.4
2019-06-01T03:09:11.749Z,12.4
2019-06-01T03:10:03.087Z,12.4
2019-06-01T03:10:54.140Z,12.4
2019-06-01T03:11:45.102Z,12.5
2019-06-01T03:12:36.080Z,12.5
2019-06-01T03:13:28.055Z,12.5
2019-06-01T03:14:19.122Z,12.5
2019-06-01T03:15:10.019Z,12.5
2019-06-01T03:16:00.913Z,12.5
2019-06-01T03:16:51.867Z,12.5
2019-06-01T03:17:42.822Z,12.5
2019-06-01T03:18:33.754Z,12.5
2019-06-01T03:19:24.725Z,12.5
2019-06-01T03:20:15.693Z,12.6
2019-06-01T03:21:07.798Z,12.6
2019-06-01T03:21:59.623Z,12.6
2019-06-01T03:22:50.700Z,12.6
2019-06-01T03:23:41.654Z,12.6
2019-06-01T03:24:32.560Z,12.6
2019-06-01T03:25:23.808Z,12.6
2019-06-01T03:26:14.689Z,12.7
2019-06-01T03:27:06.309Z,12.7
2019-06-01T03:27:57.390Z,12.7
2019-06-01T03:28:48.320Z,12.7
2019-06-01T03:29:39.257Z,12.7
2019-06-01T03:30:30.531Z,12.7
2019-06-01T03:31:21.465Z,12.8
2019-06-01T03:32:28.824Z,12.8
2019-06-01T03:33:10.469Z,12.8
2019-06-01T03:34:03.807Z,12.8
2019-06-01T03:34:55.315Z,12.8
2019-06-01T03:35:46.229Z,12.8
2019-06-01T03:36:37.299Z,12.8
2019-06-01T03:37:28.300Z,12.8
2019-06-01T03:38:19.248Z,12.8
2019-06-01T03:39:10.145Z,12.8
2019-06-01T03:40:01.168Z,12.8
2019-06-01T03:40:52.113Z,12.8
2019-06-01T03:41:43.101Z,12.8
2019-06-01T03:42:34.248Z,12.8
2019-06-01T03:43:25.273Z,12.8
2019-06-01T03:44:16.213Z,12.8
2019-06-01T03:45:07.619Z,12.8
2019-06-01T03:46:00.475Z,12.8
2019-06-01T03:46:51.452Z,12.8
2019-06-01T03:47:42.405Z,12.9
2019-06-01T03:48:33.335Z,12.9
2019-06-01T03:49:24.224Z,12.9
2019-06-01T03:50:15.118Z,12.9
2019-06-01T03:51:06.052Z,12.9
2019-06-01T03:51:57.006Z,12.9
2019-06-01T03:52:48.024Z,12.9
2019-06-01T03:53:38.959Z,12.9
2019-06-01T03:54:29.942Z,12.9
2019-06-01T03:55:23.812Z,12.9
2019-06-01T03:56:14.733Z,12.9
2019-06-01T03:57:09.178Z,13
2019-06-01T03:58:00.889Z,13
2019-06-01T03:58:52.222Z,13
2019-06-01T03:59:43.390Z,13
2019-06-01T04:00:35.337Z,13.1
2019-06-01T04:01:26.347Z,13.1
2019-06-01T04:02:17.275Z,13.1
2019-06-01T04:03:09.177Z,13.1
2019-06-01T04:04:00.913Z,13.1
2019-06-01T04:04:51.925Z,13.1
2019-06-01T04:05:42.914Z,13.1
2019-06-01T04:06:33.855Z,13.1
2019-06-01T04:07:25.810Z,13.1
2019-06-01T04:08:17.012Z,13.2
2019-06-01T04:09:09.714Z,13.2
2019-06-01T04:10:02.012Z,13.2
2019-06-01T04:10:55.656Z,13.2
2019-06-01T04:11:46.650Z,13.2
2019-06-01T04:12:37.600Z,13.2
2019-06-01T04:13:28.698Z,13.2
2019-06-01T04:14:19.652Z,13.2
2019-06-01T04:15:14.467Z,13.2
2019-06-01T04:16:06.391Z,13.2
2019-06-01T04:17:00.110Z,13.2
2019-06-01T04:17:51.367Z,13.2
2019-06-01T04:18:42.267Z,13.2
2019-06-01T04:19:33.298Z,13.2
2019-06-01T04:20:24.306Z,13.2
2019-06-01T04:21:15.470Z,13.2
2019-06-01T04:22:06.490Z,13.2
2019-06-01T04:22:57.472Z,13.2
2019-06-01T04:23:48.413Z,13.2
2019-06-01T04:24:39.324Z,13.2
2019-06-01T04:25:31.343Z,13.2
2019-06-01T04:26:22.345Z,13.2
2019-06-01T04:27:13.276Z,13.2
2019-06-01T04:28:04.296Z,13.2
2019-06-01T04:28:55.266Z,13.2
2019-06-01T04:29:49.923Z,13.2
2019-06-01T04:30:40.953Z,13.2
2019-06-01T04:31:31.902Z,13.2
2019-06-01T04:32:24.958Z,13.2
2019-06-01T04:33:15.947Z,13.2
2019-06-01T04:34:06.856Z,13.2
2019-06-01T04:34:57.781Z,13.2
2019-06-01T04:35:48.845Z,13.2
2019-06-01T04:36:39.811Z,13.2
2019-06-01T04:37:30.737Z,13.2
2019-06-01T04:38:22.779Z,13.2
2019-06-01T04:39:13.877Z,13.2
2019-06-01T04:40:05.278Z,13.2
2019-06-01T04:40:57.359Z,13.2
2019-06-01T04:41:48.353Z,13.2
2019-06-01T04:42:39.267Z,13.2
2019-06-01T04:43:30.314Z,13.2
2019-06-01T04:44:23.891Z,13.2
2019-06-01T04:45:14.840Z,13.2
2019-06-01T04:46:06.157Z,13.2
2019-06-01T04:46:57.124Z,13.2
2019-06-01T04:47:48.045Z,13.2
2019-06-01T04:48:39.025Z,13.2
2019-06-01T04:49:30.007Z,13.2
2019-06-01T04:50:20.956Z,13.2
2019-06-01T04:51:13.344Z,13.2
2019-06-01T04:52:05.241Z,13.2
2019-06-01T04:52:56.235Z,13.2
2019-06-01T04:53:47.300Z,13.2
2019-06-01T04:54:38.241Z,13.2
2019-06-01T04:55:29.165Z,13.2
2019-06-01T04:56:20.222Z,13.2
2019-06-01T04:57:11.232Z,13.2
2019-06-01T04:58:02.174Z,13.2
2019-06-01T04:58:53.243Z,13.2
2019-06-01T04:59:44.205Z,13.2
2019-06-01T05:00:35.129Z,13.2
2019-06-01T05:01:26.154Z,13.2
2019-06-01T05:02:18.059Z,13.2
2019-06-01T05:03:10.398Z,13.2
2019-06-01T05:04:02.629Z,13.2
2019-06-01T05:04:53.605Z,13.2
2019-06-01T05:05:46.567Z,13.2
2019-06-01T05:06:37.587Z,13.2
2019-06-01T05:07:28.534Z,13.3
2019-06-01T05:08:19.442Z,13.3
2019-06-01T05:09:11.347Z,13.3
2019-06-01T05:10:02.316Z,13.3
2019-06-01T05:10:53.285Z,13.3
2019-06-01T05:11:44.252Z,13.3
2019-06-01T05:12:35.209Z,13.3
2019-06-01T05:13:26.129Z,13.3
2019-06-01T05:14:17.162Z,13.3
2019-06-01T05:15:08.108Z,13.3
2019-06-01T05:15:59.065Z,13.3
2019-06-01T05:16:50.019Z,13.3
2019-06-01T05:17:44.067Z,13.3
2019-06-01T05:18:36.996Z,13.3
2019-06-01T05:20:24.074Z,13.3
2019-06-01T05:21:15.211Z,13.3
2019-06-01T05:22:06.445Z,13.3
2019-06-01T05:22:57.450Z,13.3
2019-06-01T05:23:51.133Z,13.3
2019-06-01T05:24:42.156Z,13.3
2019-06-01T05:25:33.135Z,13.3
2019-06-01T05:26:24.085Z,13.3
2019-06-01T05:27:15.359Z,13.3
2019-06-01T05:28:07.009Z,13.3
2019-06-01T05:28:58.946Z,13.3
2019-06-01T05:29:49.973Z,13.3
2019-06-01T05:30:45.962Z,13.3
2019-06-01T05:31:36.931Z,13.3
2019-06-01T05:32:28.209Z,13.3
2019-06-01T05:33:33.199Z,13.3
2019-06-01T05:34:18.310Z,13.3
2019-06-01T05:35:09.672Z,13.3
2019-06-01T05:36:00.676Z,13.3
2019-06-01T05:36:51.725Z,13.3
2019-06-01T05:37:42.688Z,13.3
2019-06-01T05:38:35.748Z,13.3
2019-06-01T05:39:26.697Z,13.3
2019-06-01T05:40:19.732Z,13.3
2019-06-01T05:41:11.884Z,13.3
2019-06-01T05:42:03.750Z,13.3
2019-06-01T05:42:57.024Z,13.3
2019-06-01T05:43:48.062Z,13.3
2019-06-01T05:44:38.968Z,13.3
2019-06-01T05:45:29.893Z,13.3
2019-06-01T05:46:20.760Z,13.3
2019-06-01T05:47:12.134Z,13.3
2019-06-01T05:51:13.616Z,13.3
2019-06-01T05:52:06.455Z,13.3
2019-06-01T05:52:57.417Z,13.3
2019-06-01T05:53:48.355Z,13.3
2019-06-01T05:54:39.316Z,13.3
2019-06-01T05:55:30.280Z,13.3
2019-06-01T05:56:22.976Z,13.3
2019-06-01T05:57:14.681Z,13.3
2019-06-01T05:58:05.724Z,13.3
2019-06-01T05:58:56.648Z,13.3
2019-06-01T05:59:47.579Z,13.4
2019-06-01T06:00:38.719Z,13.4
2019-06-01T06:01:29.657Z,13.4
2019-06-01T06:02:21.591Z,13.4
2019-06-01T06:03:15.314Z,13.4
2019-06-01T06:04:07.338Z,13.4
2019-06-01T06:04:59.274Z,13.4
2019-06-01T06:05:51.247Z,13.4
2019-06-01T06:06:42.179Z,13.4
2019-06-01T06:07:33.087Z,13.4
2019-06-01T06:08:23.983Z,13.4
2019-06-01T06:09:14.888Z,13.4
2019-06-01T06:10:05.798Z,13.5
2019-06-01T06:10:56.739Z,13.4
2019-06-01T06:11:47.711Z,13.5
2019-06-01T06:12:38.635Z,13.5
2019-06-01T06:13:29.641Z,13.5
2019-06-01T06:14:22.149Z,13.5
2019-06-01T06:15:13.568Z,13.5
2019-06-01T06:16:04.711Z,13.4
2019-06-01T06:16:55.712Z,13.5
2019-06-01T06:17:46.711Z,13.4
2019-06-01T06:18:37.642Z,13.4
2019-06-01T06:19:28.581Z,13.4
2019-06-01T06:20:20.125Z,13.4
2019-06-01T06:21:11.955Z,13.4
2019-06-01T06:22:03.126Z,13.4
2019-06-01T06:22:55.071Z,13.4
2019-06-01T06:23:46.047Z,13.4
2019-06-01T06:24:36.976Z,13.4
2019-06-01T06:25:29.010Z,13.4
2019-06-01T06:26:22.561Z,13.4
2019-06-01T06:27:14.454Z,13.4
2019-06-01T06:28:05.424Z,13.4
2019-06-01T06:28:56.360Z,13.4
2019-06-01T06:29:47.283Z,13.4
2019-06-01T06:30:38.172Z,13.4
2019-06-01T06:31:29.115Z,13.4
2019-06-01T06:32:21.251Z,13.4
2019-06-01T06:33:13.150Z,13.4
2019-06-01T06:34:04.112Z,13.4
2019-06-01T06:34:55.024Z,13.5
2019-06-01T06:35:45.981Z,13.4
2019-06-01T06:36:36.996Z,13.4
2019-06-01T06:37:27.898Z,13.4
2019-06-01T06:38:19.826Z,13.4
2019-06-01T06:39:10.750Z,13.5
2019-06-01T06:40:01.667Z,13.4
2019-06-01T06:40:52.543Z,13.5
2019-06-01T06:41:43.777Z,13.5
2019-06-01T06:42:34.775Z,13.5
2019-06-01T06:43:32.537Z,13.5
2019-06-01T06:44:26.140Z,13.5
2019-06-01T06:45:17.066Z,13.5
2019-06-01T06:46:08.030Z,13.5
2019-06-01T06:46:59.011Z,13.5
2019-06-01T06:47:49.909Z,13.5
2019-06-01T06:48:40.832Z,13.5
2019-06-01T06:49:32.757Z,13.5
2019-06-01T06:50:25.508Z,13.5
2019-06-01T06:51:17.246Z,13.5
2019-06-01T06:52:10.198Z,13.5
2019-06-01T06:53:01.088Z,13.5
2019-06-01T06:53:51.989Z,13.5
2019-06-01T06:54:42.889Z,13.5
2019-06-01T06:55:33.793Z,13.5
2019-06-01T06:56:24.673Z,13.5
2019-06-01T06:57:15.998Z,13.5
2019-06-01T06:58:07.841Z,13.5
2019-06-01T06:58:58.858Z,13.5
2019-06-01T06:59:50.769Z,13.5
2019-06-01T07:00:41.989Z,13.5
2019-06-01T07:01:32.868Z,13.6
2019-06-01T07:02:24.923Z,13.5
2019-06-01T07:03:16.865Z,13.6
2019-06-01T07:04:12.493Z,13.6
2019-06-01T07:05:03.639Z,13.6
2019-06-01T07:05:54.507Z,13.6
2019-06-01T07:06:45.382Z,13.6
2019-06-01T07:07:37.017Z,13.6
2019-06-01T07:08:28.957Z,13.6
2019-06-01T07:09:20.031Z,13.6
2019-06-01T07:10:10.941Z,13.6
2019-06-01T07:11:02.865Z,13.6
2019-06-01T07:11:53.804Z,13.6
2019-06-01T07:12:44.736Z,13.6
2019-06-01T07:13:35.627Z,13.6
2019-06-01T07:14:27.543Z,13.6
2019-06-01T07:15:19.197Z,13.6
2019-06-01T07:16:10.171Z,13.6
2019-06-01T07:17:01.047Z,13.6
2019-06-01T07:17:51.981Z,13.7
2019-06-01T07:18:42.855Z,13.7
2019-06-01T07:19:33.737Z,13.7
2019-06-01T07:20:25.683Z,13.7
2019-06-01T07:21:17.282Z,13.8
2019-06-01T07:22:08.196Z,13.8
2019-06-01T07:22:59.111Z,13.8
2019-06-01T07:23:49.986Z,13.8
2019-06-01T07:24:40.868Z,13.8
2019-06-01T07:25:32.918Z,13.8
2019-06-01T07:26:24.165Z,13.8
2019-06-01T07:27:19.888Z,13.8
2019-06-01T07:28:10.917Z,13.8
2019-06-01T07:29:04.609Z,13.8
2019-06-01T07:43:09.486Z,14
2019-06-01T07:44:00.436Z,14
2019-06-01T07:44:55.036Z,14
2019-06-01T07:45:46.052Z,14
2019-06-01T07:46:36.962Z,14
2019-06-01T07:47:29.065Z,14
2019-06-01T07:48:20.928Z,14
2019-06-01T07:49:11.970Z,14
2019-06-01T07:50:02.916Z,14
2019-06-01T07:50:54.199Z,14
2019-06-01T07:51:45.113Z,14
2019-06-01T07:52:36.064Z,14
2019-06-01T07:53:27.404Z,14
2019-06-01T07:54:18.389Z,14
2019-06-01T07:55:09.292Z,14
2019-06-01T07:56:01.259Z,14
2019-06-01T07:56:52.200Z,14
2019-06-01T07:57:44.193Z,14
2019-06-01T07:58:36.374Z,14.1
2019-06-01T07:59:28.178Z,14.1
2019-06-01T08:00:20.963Z,14.1
2019-06-01T08:01:13.182Z,14
2019-06-01T08:02:04.100Z,14.1
2019-06-01T08:02:55.106Z,14.1
2019-06-01T08:03:46.079Z,14.1
2019-06-01T08:04:52.149Z,14.1
2019-06-01T08:05:32.935Z,14.1
2019-06-01T08:06:25.681Z,14.1
2019-06-01T08:07:16.992Z,14.1
2019-06-01T08:08:07.972Z,14.1
2019-06-01T08:08:58.934Z,14.1
2019-06-01T08:09:49.861Z,14.1
2019-06-01T08:10:40.769Z,14.1
2019-06-01T08:11:33.327Z,14.1
2019-06-01T08:12:25.624Z,14.1
2019-06-01T08:13:16.615Z,14.1
2019-06-01T08:14:09.077Z,14.1
2019-06-01T08:14:59.967Z,14.1
2019-06-01T08:15:50.843Z,14.1
2019-06-01T08:16:41.715Z,14.1
2019-06-01T08:17:32.593Z,14.1
2019-06-01T08:18:23.884Z,14.1
2019-06-01T08:19:14.875Z,14.1
2019-06-01T08:20:05.818Z,14.1
2019-06-01T08:20:56.743Z,14.1
2019-06-01T08:21:47.671Z,14.2
2019-06-01T08:22:38.565Z,14.2
2019-06-01T08:23:30.271Z,14.2
2019-06-01T08:24:22.096Z,14.2
2019-06-01T08:25:13.099Z,14.2
2019-06-01T08:26:03.983Z,14.2
2019-06-01T08:26:54.866Z,14.2
2019-06-01T08:27:45.770Z,14.2
2019-06-01T08:28:36.655Z,14.2
2019-06-01T08:29:28.794Z,14.2
2019-06-01T08:30:19.761Z,14.2
2019-06-01T08:31:10.641Z,14.2
2019-06-01T08:32:01.518Z,14.2
2019-06-01T08:32:52.406Z,14.2
2019-06-01T08:33:43.287Z,14.2
2019-06-01T08:34:35.990Z,14.2
2019-06-01T08:35:27.655Z,14.2
2019-06-01T08:36:18.551Z,14.3
2019-06-01T08:37:09.442Z,14.3
2019-06-01T08:38:00.343Z,14.3
2019-06-01T08:38:51.236Z,14.3
2019-06-01T08:39:42.164Z,14.3
2019-06-01T08:40:33.513Z,14.3
2019-06-01T08:41:25.492Z,14.3
2019-06-01T08:42:16.454Z,14.3
2019-06-01T08:43:07.339Z,14.3
2019-06-01T08:43:58.233Z,14.3
2019-06-01T08:44:49.143Z,14.3
2019-06-01T08:45:40.016Z,14.3
2019-06-01T08:46:31.713Z,14.3
2019-06-01T08:47:23.582Z,14.3
2019-06-01T08:48:14.538Z,14.3
2019-06-01T08:49:05.435Z,14.3
2019-06-01T08:49:56.308Z,14.3
2019-06-01T08:50:47.209Z,14.3
2019-06-01T08:51:38.076Z,14.3
2019-06-01T08:52:30.254Z,14.3
2019-06-01T08:53:21.224Z,14.3
2019-06-01T08:54:12.137Z,14.3
2019-06-01T08:55:03.004Z,14.3
2019-06-01T08:55:53.878Z,14.3
2019-06-01T08:56:44.744Z,14.3
2019-06-01T08:57:35.614Z,14.3
2019-06-01T08:58:26.487Z,14.3
2019-06-01T08:59:17.354Z,14.3
2019-06-01T09:00:08.266Z,14.3
2019-06-01T09:00:59.146Z,14.3
2019-06-01T09:01:50.015Z,14.4
2019-06-01T09:02:40.894Z,14.3
2019-06-01T09:03:31.947Z,14.3
2019-06-01T09:04:22.971Z,14.3
2019-06-01T09:05:23.685Z,14.4
2019-06-01T09:06:09.680Z,14.4
2019-06-01T09:07:00.553Z,14.4
2019-06-01T09:07:51.446Z,14.4
2019-06-01T09:08:42.333Z,14.4
2019-06-01T09:09:38.298Z,14.4
2019-06-01T09:10:29.333Z,14.4
2019-06-01T09:11:20.310Z,14.4
2019-06-01T09:12:11.185Z,14.4
2019-06-01T09:13:02.105Z,14.4
2019-06-01T09:13:52.989Z,14.4
2019-06-01T09:14:44.571Z,14.4
2019-06-01T09:15:35.751Z,14.4
2019-06-01T09:16:27.763Z,14.4
2019-06-01T09:17:19.025Z,14.4
2019-06-01T09:18:09.931Z,14.4
2019-06-01T09:19:00.803Z,14.4
2019-06-01T09:19:51.700Z,14.4
2019-06-01T09:20:42.576Z,14.4
2019-06-01T09:21:33.623Z,14.4
2019-06-01T09:22:25.334Z,14.4
2019-06-01T09:23:16.241Z,14.4
2019-06-01T09:24:07.109Z,14.4
2019-06-01T09:24:58.024Z,14.4
2019-06-01T09:25:48.893Z,14.4
2019-06-01T09:26:39.810Z,14.5
2019-06-01T09:27:31.762Z,14.5
2019-06-01T09:28:22.789Z,14.5
2019-06-01T09:29:13.657Z,14.5
2019-06-01T09:30:04.558Z,14.5
2019-06-01T09:30:55.423Z,14.5
2019-06-01T09:31:46.293Z,14.5
2019-06-01T09:32:37.165Z,14.5
2019-06-01T09:33:28.140Z,14.5
2019-06-01T09:34:19.043Z,14.5
2019-06-01T09:35:09.949Z,14.6
2019-06-01T09:36:00.828Z,14.6
2019-06-01T09:36:53.488Z,14.6
2019-06-01T09:37:46.274Z,14.6
2019-06-01T09:38:37.857Z,14.6
2019-06-01T09:39:29.101Z,14.6
2019-06-01T09:40:20.047Z,14.6
2019-06-01T09:41:11.074Z,14.6
2019-06-01T09:42:02.086Z,14.6
2019-06-01T09:42:52.956Z,14.6
2019-06-01T09:43:43.823Z,14.6
2019-06-01T09:44:35.204Z,14.6
2019-06-01T09:45:26.217Z,14.6
2019-06-01T09:46:17.164Z,14.6
2019-06-01T09:47:08.047Z,14.6
2019-06-01T09:47:58.921Z,14.6
2019-06-01T09:48:49.793Z,14.6
2019-06-01T09:49:40.697Z,14.6
2019-06-01T09:50:31.606Z,14.6
2019-06-01T09:51:22.479Z,14.6
2019-06-01T09:52:13.354Z,14.6
2019-06-01T09:53:04.241Z,14.6
2019-06-01T09:53:55.112Z,14.6
2019-06-01T09:54:45.981Z,14.7
2019-06-01T09:55:36.892Z,14.7
2019-06-01T09:56:29.242Z,14.7
2019-06-01T09:57:21.749Z,14.7
2019-06-01T09:58:12.631Z,14.7
2019-06-01T09:59:03.514Z,14.7
2019-06-01T09:59:54.399Z,14.7
2019-06-01T10:00:45.407Z,14.7
2019-06-01T10:01:36.676Z,14.7
2019-06-01T10:02:28.084Z,14.7
2019-06-01T10:03:19.024Z,14.7
2019-06-01T10:04:10.071Z,14.7
2019-06-01T10:05:01.021Z,14.7
2019-06-01T10:06:01.125Z,14.7
2019-06-01T10:06:47.729Z,14.7
2019-06-01T10:07:39.272Z,14.7
2019-06-01T10:08:32.401Z,14.7
2019-06-01T10:09:23.487Z,14.7
2019-06-01T10:10:14.378Z,14.7
2019-06-01T10:11:05.278Z,14.7
2019-06-01T10:11:56.150Z,14.7
2019-06-01T10:12:47.035Z,14.7
2019-06-01T10:13:38.374Z,14.7
2019-06-01T10:14:30.062Z,14.8
2019-06-01T10:15:21.000Z,14.8
2019-06-01T10:16:12.001Z,14.8
2019-06-01T10:17:02.946Z,14.9
2019-06-01T10:17:53.823Z,14.9
2019-06-01T10:18:44.694Z,14.9
2019-06-01T10:19:36.659Z,14.9
2019-06-01T10:20:27.644Z,14.9
2019-06-01T10:21:18.514Z,14.9
2019-06-01T10:22:09.382Z,14.9
2019-06-01T10:23:00.315Z,14.9
2019-06-01T10:23:51.231Z,14.9
2019-06-01T10:24:42.102Z,14.9
2019-06-01T10:25:34.344Z,14.9
2019-06-01T10:26:25.356Z,14.8
2019-06-01T10:27:16.225Z,14.8
2019-06-01T10:28:07.100Z,14.8
2019-06-01T10:28:57.975Z,14.8
2019-06-01T10:29:48.848Z,14.8
2019-06-01T10:30:39.958Z,14.8
2019-06-01T10:31:30.865Z,14.8
2019-06-01T10:32:21.744Z,14.8
2019-06-01T10:33:12.610Z,14.8
2019-06-01T10:34:03.636Z,14.9
2019-06-01T10:34:54.827Z,14.9
2019-06-01T10:35:45.726Z,14.9
2019-06-01T10:36:36.599Z,14.9
2019-06-01T10:37:27.473Z,14.9
2019-06-01T10:38:18.349Z,14.9
2019-06-01T10:39:09.213Z,14.9
2019-06-01T10:40:00.197Z,15
2019-06-01T10:40:51.125Z,15
2019-06-01T10:41:41.996Z,15.1
2019-06-01T10:42:34.370Z,15.1
2019-06-01T10:43:25.333Z,15.1
2019-06-01T10:44:16.197Z,15.1
2019-06-01T10:45:07.097Z,15.1
2019-06-01T10:45:58.117Z,15.1
2019-06-01T10:46:48.989Z,15.1
2019-06-01T10:47:40.145Z,15.1
2019-06-01T10:48:32.705Z,15.2
2019-06-01T10:49:24.023Z,15.2
2019-06-01T10:50:17.303Z,15.2
2019-06-01T10:51:08.504Z,15.3
2019-06-01T10:51:59.415Z,15.3
2019-06-01T10:52:50.299Z,15.3
2019-06-01T10:53:43.316Z,15.3
2019-06-01T10:54:34.631Z,15.3
2019-06-01T10:55:25.544Z,15.3
2019-06-01T10:56:16.502Z,15.3
2019-06-01T10:57:07.377Z,15.3
2019-06-01T10:57:58.536Z,15.3
2019-06-01T10:58:58.962Z,15.3
2019-06-01T10:59:45.225Z,15.3
2019-06-01T11:00:41.574Z,15.2
2019-06-01T11:01:33.858Z,15.2
2019-06-01T11:02:25.085Z,15.2
2019-06-01T11:03:15.955Z,15.2
2019-06-01T11:04:06.828Z,15.2
2019-06-01T11:04:57.690Z,15.2
2019-06-01T11:05:48.574Z,15.1
2019-06-01T11:06:44.584Z,15.1
2019-06-01T11:07:35.287Z,15.1
2019-06-01T11:08:26.400Z,15.1
2019-06-01T11:09:17.569Z,15.1
2019-06-01T11:10:08.447Z,15.1
2019-06-01T11:10:59.324Z,15.1
2019-06-01T11:11:50.237Z,15.1
2019-06-01T11:12:41.191Z,15.1
2019-06-01T11:13:33.023Z,15.1
2019-06-01T11:14:23.977Z,15.1
2019-06-01T11:15:14.859Z,15.1
2019-06-01T11:16:05.741Z,15.1
2019-06-01T11:16:56.944Z,15.1
2019-06-01T11:17:47.885Z,15.1
2019-06-01T11:18:39.542Z,15.1
2019-06-01T11:19:30.634Z,15.1
2019-06-01T11:20:21.556Z,15.1
2019-06-01T11:21:12.466Z,15.1
2019-06-01T11:22:03.370Z,15.1
2019-06-01T11:22:54.239Z,15.1
2019-06-01T11:23:46.581Z,15.1
2019-06-01T11:24:37.610Z,15.1
2019-06-01T11:25:28.506Z,15.1
2019-06-01T11:26:19.407Z,15.1
2019-06-01T11:27:10.315Z,15.1
2019-06-01T11:28:01.186Z,15.1
2019-06-01T11:28:52.327Z,15.1
2019-06-01T11:29:49.620Z,15.1
2019-06-01T11:30:39.930Z,15.1
2019-06-01T11:31:31.012Z,15.1
2019-06-01T11:32:21.911Z,15.1
2019-06-01T11:33:12.781Z,15.1
2019-06-01T11:34:03.660Z,15.1
2019-06-01T11:34:54.544Z,15.1
2019-06-01T11:35:45.546Z,15.1
2019-06-01T11:36:53.887Z,15.1
2019-06-01T11:37:32.270Z,15.1
2019-06-01T11:38:23.146Z,15.1
2019-06-01T11:39:14.040Z,15.1
2019-06-01T11:40:04.926Z,15.1
2019-06-01T11:40:55.805Z,15.1
2019-06-01T11:41:46.776Z,15.1
2019-06-01T11:42:39.002Z,15.1
2019-06-01T11:43:30.025Z,15.1
2019-06-01T11:44:20.912Z,15.1
2019-06-01T11:45:11.789Z,15.1
2019-06-01T11:46:02.656Z,15.1